BAW6HA EFHK-ESGG
Flight info
| Callsign | BAW6HA |
|---|---|
| Flight time | 0h 59m |
| Altitude | 36000 |
| Route | KUVEM Y366 USITU DCT TUSNI DCT MOXAM |
| Aircraft | CONC/H-SDE2E3FGHIRYW/X |
Departure
| Time | 2026-04-20 18:56 |
|---|---|
| Airport | Helsinki Vantaa Airport (EFHK) |
Arrival
| Time | 2026-04-20 19:56 |
|---|---|
| Airport | Göteborg Landvetter Airport (ESGG) |
| Time | Latitude | Longitude | Altitude | Speed | Heading |
|---|---|---|---|---|---|
| 2026-04-20 18:15 | 60.31715 | 24.95707 | 180 ft | 0 kts | 2° |
| 2026-04-20 18:43 | 60.31719 | 24.95707 | 180 ft | 2 kts | 2° |
| 2026-04-20 18:43 | 60.31751 | 24.95709 | 180 ft | 5 kts | 359° |
| 2026-04-20 18:43 | 60.31749 | 24.95709 | 180 ft | 9 kts | 359° |
| 2026-04-20 18:43 | 60.31715 | 24.95708 | 180 ft | 0 kts | 1° |
| 2026-04-20 18:44 | 60.31717 | 24.95708 | 180 ft | 0 kts | 1° |
| 2026-04-20 18:44 | 60.31718 | 24.95708 | 180 ft | 0 kts | 1° |
| 2026-04-20 18:45 | 60.31710 | 24.95707 | 180 ft | 2 kts | 7° |
| 2026-04-20 18:45 | 60.31695 | 24.95705 | 180 ft | 2 kts | 1° |
| 2026-04-20 18:45 | 60.31681 | 24.95704 | 180 ft | 0 kts | 2° |
| 2026-04-20 18:45 | 60.31672 | 24.95706 | 180 ft | 1 kts | 322° |
| 2026-04-20 18:46 | 60.31663 | 24.95725 | 181 ft | 2 kts | 282° |
| 2026-04-20 18:46 | 60.31662 | 24.95751 | 181 ft | 2 kts | 246° |
| 2026-04-20 18:46 | 60.31668 | 24.95770 | 180 ft | 0 kts | 223° |
| 2026-04-20 18:46 | 60.31670 | 24.95775 | 180 ft | 0 kts | 228° |
| 2026-04-20 18:49 | 60.31668 | 24.95770 | 180 ft | 0 kts | 228° |
| 2026-04-20 18:49 | 60.31659 | 24.95747 | 181 ft | 2 kts | 236° |
| 2026-04-20 18:49 | 60.31645 | 24.95703 | 181 ft | 5 kts | 246° |
| 2026-04-20 18:50 | 60.31641 | 24.95605 | 182 ft | 5 kts | 264° |
| 2026-04-20 18:50 | 60.31648 | 24.95540 | 181 ft | 7 kts | 312° |
| 2026-04-20 18:50 | 60.31673 | 24.95461 | 181 ft | 4 kts | 269° |
| 2026-04-20 18:50 | 60.31670 | 24.95429 | 182 ft | 4 kts | 254° |
| 2026-04-20 18:51 | 60.31661 | 24.95384 | 183 ft | 1 kts | 241° |
| 2026-04-20 18:51 | 60.31620 | 24.95275 | 185 ft | 18 kts | 228° |
| 2026-04-20 18:51 | 60.31516 | 24.95057 | 182 ft | 24 kts | 226° |
| 2026-04-20 18:51 | 60.31382 | 24.94770 | 171 ft | 32 kts | 227° |
| 2026-04-20 18:52 | 60.31212 | 24.94377 | 167 ft | 34 kts | 229° |
| 2026-04-20 18:52 | 60.31087 | 24.94104 | 167 ft | 20 kts | 227° |
| 2026-04-20 18:52 | 60.31036 | 24.93918 | 167 ft | 14 kts | 275° |
| 2026-04-20 18:52 | 60.31081 | 24.93750 | 165 ft | 12 kts | 322° |
| 2026-04-20 18:53 | 60.31151 | 24.93752 | 163 ft | 8 kts | 21° |
| 2026-04-20 18:53 | 60.31195 | 24.93792 | 162 ft | 0 kts | 42° |
| 2026-04-20 18:55 | 60.31200 | 24.93803 | 162 ft | 7 kts | 42° |
| 2026-04-20 18:55 | 60.31387 | 24.94183 | 169 ft | 84 kts | 46° |
| 2026-04-20 18:55 | 60.32026 | 24.95590 | 187 ft | 187 kts | 45° |
| 2026-04-20 18:56 | 60.33095 | 24.97970 | 275 ft | 262 kts | 47° |
| 2026-04-20 18:56 | 60.34298 | 25.00802 | 699 ft | 266 kts | 48° |
| 2026-04-20 18:56 | 60.35415 | 25.03467 | 1045 ft | 227 kts | 49° |
| 2026-04-20 18:56 | 60.36508 | 25.06145 | 1198 ft | 248 kts | 50° |
| 2026-04-20 18:57 | 60.37557 | 25.08907 | 1574 ft | 246 kts | 53° |
| 2026-04-20 18:57 | 60.38511 | 25.11652 | 2145 ft | 241 kts | 53° |
| 2026-04-20 18:57 | 60.39490 | 25.14392 | 3013 ft | 244 kts | 46° |
| 2026-04-20 18:57 | 60.40713 | 25.16819 | 3668 ft | 248 kts | 37° |
| 2026-04-20 18:58 | 60.42221 | 25.18503 | 4269 ft | 250 kts | 15° |
| 2026-04-20 18:58 | 60.43941 | 25.18814 | 5004 ft | 256 kts | 353° |
| 2026-04-20 18:58 | 60.45657 | 25.17683 | 5268 ft | 267 kts | 333° |
| 2026-04-20 18:58 | 60.47179 | 25.15396 | 4915 ft | 271 kts | 321° |
| 2026-04-20 18:59 | 60.48524 | 25.12712 | 4369 ft | 264 kts | 318° |
| 2026-04-20 18:59 | 60.49726 | 25.09937 | 5115 ft | 271 kts | 293° |
| 2026-04-20 18:59 | 60.49861 | 25.06053 | 6025 ft | 293 kts | 252° |
| 2026-04-20 18:59 | 60.49058 | 25.02248 | 6768 ft | 301 kts | 249° |
| 2026-04-20 19:00 | 60.48326 | 24.98312 | 7515 ft | 301 kts | 253° |
| 2026-04-20 19:00 | 60.47629 | 24.94320 | 8465 ft | 306 kts | 252° |
| 2026-04-20 19:00 | 60.46906 | 24.90254 | 9434 ft | 312 kts | 252° |
| 2026-04-20 19:00 | 60.46170 | 24.86100 | 10385 ft | 318 kts | 252° |
| 2026-04-20 19:01 | 60.45417 | 24.81842 | 11356 ft | 325 kts | 252° |
| 2026-04-20 19:01 | 60.44655 | 24.77532 | 12353 ft | 330 kts | 252° |
| 2026-04-20 19:01 | 60.43864 | 24.73077 | 13336 ft | 335 kts | 252° |
| 2026-04-20 19:01 | 60.43076 | 24.68635 | 14301 ft | 341 kts | 252° |
| 2026-04-20 19:02 | 60.42276 | 24.64135 | 15249 ft | 347 kts | 252° |
| 2026-04-20 19:02 | 60.41458 | 24.59515 | 16231 ft | 354 kts | 252° |
| 2026-04-20 19:02 | 60.40617 | 24.54772 | 17199 ft | 359 kts | 252° |
| 2026-04-20 19:02 | 60.39782 | 24.50031 | 18170 ft | 366 kts | 253° |
| 2026-04-20 19:03 | 60.38924 | 24.45163 | 19155 ft | 373 kts | 252° |
| 2026-04-20 19:03 | 60.38040 | 24.40148 | 20144 ft | 380 kts | 252° |
| 2026-04-20 19:03 | 60.37145 | 24.35056 | 21128 ft | 387 kts | 253° |
| 2026-04-20 19:03 | 60.36232 | 24.29874 | 22137 ft | 405 kts | 252° |
| 2026-04-20 19:04 | 60.35267 | 24.24369 | 23209 ft | 429 kts | 252° |
| 2026-04-20 19:04 | 60.34259 | 24.18602 | 24292 ft | 454 kts | 252° |
| 2026-04-20 19:04 | 60.33177 | 24.12423 | 25431 ft | 482 kts | 252° |
| 2026-04-20 19:04 | 60.32060 | 24.05961 | 26583 ft | 513 kts | 252° |
| 2026-04-20 19:05 | 60.30851 | 23.98890 | 27783 ft | 547 kts | 252° |
| 2026-04-20 19:05 | 60.29579 | 23.91392 | 28994 ft | 586 kts | 252° |
| 2026-04-20 19:05 | 60.28242 | 23.83422 | 30206 ft | 615 kts | 252° |
| 2026-04-20 19:05 | 60.26892 | 23.75359 | 31375 ft | 619 kts | 252° |
| 2026-04-20 19:06 | 60.25529 | 23.67201 | 32457 ft | 614 kts | 252° |
| 2026-04-20 19:06 | 60.24178 | 23.59096 | 33414 ft | 609 kts | 252° |
| 2026-04-20 19:06 | 60.22834 | 23.51035 | 34269 ft | 606 kts | 252° |
| 2026-04-20 19:06 | 60.21508 | 23.43070 | 35053 ft | 604 kts | 252° |
| 2026-04-20 19:07 | 60.20187 | 23.35106 | 35441 ft | 603 kts | 252° |
| 2026-04-20 19:07 | 60.18882 | 23.27218 | 35601 ft | 599 kts | 251° |
| 2026-04-20 19:07 | 60.16264 | 23.11447 | 35746 ft | 596 kts | 251° |
| 2026-04-20 19:08 | 60.14959 | 23.03652 | 35849 ft | 595 kts | 251° |
| 2026-04-20 19:08 | 60.12299 | 22.87915 | 36056 ft | 594 kts | 251° |
| 2026-04-20 19:09 | 60.09632 | 22.72309 | 35998 ft | 594 kts | 251° |
| 2026-04-20 19:09 | 60.06961 | 22.56735 | 35989 ft | 596 kts | 251° |
| 2026-04-20 19:10 | 60.04265 | 22.41026 | 35991 ft | 596 kts | 251° |
| 2026-04-20 19:10 | 60.01577 | 22.25421 | 36041 ft | 596 kts | 250° |
| 2026-04-20 19:11 | 59.98880 | 22.09876 | 36062 ft | 596 kts | 250° |
| 2026-04-20 19:11 | 59.96158 | 21.94311 | 36061 ft | 594 kts | 251° |
| 2026-04-20 19:12 | 59.93442 | 21.78889 | 36006 ft | 594 kts | 251° |
| 2026-04-20 19:12 | 59.90711 | 21.63497 | 35988 ft | 594 kts | 250° |
| 2026-04-20 19:13 | 59.87939 | 21.48012 | 36010 ft | 595 kts | 250° |
| 2026-04-20 19:13 | 59.85215 | 21.32593 | 36073 ft | 593 kts | 256° |
| 2026-04-20 19:14 | 59.83913 | 21.16604 | 36121 ft | 591 kts | 258° |
| 2026-04-20 19:14 | 59.82291 | 21.00594 | 36044 ft | 589 kts | 259° |
| 2026-04-20 19:15 | 59.80698 | 20.84756 | 36074 ft | 591 kts | 259° |
| 2026-04-20 19:15 | 59.79070 | 20.68800 | 36084 ft | 591 kts | 259° |
| 2026-04-20 19:16 | 59.77418 | 20.52856 | 36076 ft | 591 kts | 259° |
| 2026-04-20 19:16 | 59.75752 | 20.36982 | 36089 ft | 590 kts | 259° |
| 2026-04-20 19:17 | 59.74070 | 20.21148 | 36071 ft | 590 kts | 258° |
| 2026-04-20 19:17 | 59.72370 | 20.05328 | 36081 ft | 590 kts | 258° |
| 2026-04-20 19:18 | 59.70642 | 19.89465 | 36081 ft | 590 kts | 258° |
| 2026-04-20 19:18 | 59.68897 | 19.73623 | 36087 ft | 589 kts | 258° |
| 2026-04-20 19:19 | 59.67146 | 19.57913 | 36089 ft | 588 kts | 258° |
| 2026-04-20 19:19 | 59.65369 | 19.42161 | 36096 ft | 588 kts | 258° |
| 2026-04-20 19:20 | 59.63583 | 19.26514 | 36092 ft | 588 kts | 257° |
| 2026-04-20 19:20 | 59.61763 | 19.10750 | 36107 ft | 588 kts | 257° |
| 2026-04-20 19:21 | 59.59933 | 18.95068 | 36110 ft | 587 kts | 257° |
| 2026-04-20 19:21 | 59.58083 | 18.79406 | 36050 ft | 587 kts | 257° |
| 2026-04-20 19:22 | 59.56215 | 18.63765 | 36119 ft | 587 kts | 257° |
| 2026-04-20 19:22 | 59.54325 | 18.48108 | 36109 ft | 586 kts | 257° |
| 2026-04-20 19:23 | 59.52430 | 18.32578 | 36086 ft | 585 kts | 256° |
| 2026-04-20 19:23 | 59.51467 | 18.24755 | 36357 ft | 586 kts | 256° |
| 2026-04-20 19:23 | 59.50503 | 18.16968 | 36197 ft | 585 kts | 256° |
| 2026-04-20 19:24 | 59.48624 | 18.01895 | 36099 ft | 584 kts | 256° |
| 2026-04-20 19:24 | 59.46737 | 17.86921 | 36116 ft | 584 kts | 256° |
| 2026-04-20 19:24 | 59.45768 | 17.79291 | 35930 ft | 584 kts | 256° |
| 2026-04-20 19:25 | 59.44770 | 17.71467 | 36176 ft | 584 kts | 256° |
| 2026-04-20 19:25 | 59.42793 | 17.56093 | 36116 ft | 583 kts | 256° |
| 2026-04-20 19:26 | 59.40798 | 17.40743 | 36116 ft | 583 kts | 256° |
| 2026-04-20 19:26 | 59.38775 | 17.25324 | 36113 ft | 583 kts | 255° |
| 2026-04-20 19:27 | 59.36742 | 17.09997 | 36122 ft | 582 kts | 255° |
| 2026-04-20 19:27 | 59.34692 | 16.94698 | 36126 ft | 581 kts | 255° |
| 2026-04-20 19:28 | 59.32528 | 16.79611 | 36127 ft | 581 kts | 248° |
| 2026-04-20 19:28 | 59.29427 | 16.65174 | 36121 ft | 581 kts | 248° |
| 2026-04-20 19:29 | 59.26378 | 16.50651 | 36121 ft | 580 kts | 247° |
| 2026-04-20 19:29 | 59.23275 | 16.36080 | 36110 ft | 580 kts | 247° |
| 2026-04-20 19:30 | 59.20176 | 16.21647 | 36110 ft | 578 kts | 246° |
| 2026-04-20 19:30 | 59.17061 | 16.07245 | 36117 ft | 578 kts | 246° |
| 2026-04-20 19:31 | 59.13920 | 15.92817 | 36114 ft | 579 kts | 246° |
| 2026-04-20 19:31 | 59.10773 | 15.78471 | 36112 ft | 579 kts | 246° |
| 2026-04-20 19:32 | 59.07624 | 15.64200 | 36113 ft | 578 kts | 246° |
| 2026-04-20 19:32 | 59.04548 | 15.50366 | 36112 ft | 578 kts | 246° |
| 2026-04-20 19:33 | 59.01289 | 15.35796 | 36110 ft | 578 kts | 246° |
| 2026-04-20 19:33 | 58.98060 | 15.21459 | 36252 ft | 577 kts | 245° |
| 2026-04-20 19:33 | 58.96465 | 15.14428 | 36385 ft | 577 kts | 245° |
| 2026-04-20 19:34 | 58.94846 | 15.07299 | 36387 ft | 579 kts | 245° |
| 2026-04-20 19:34 | 58.91616 | 14.93152 | 36433 ft | 577 kts | 245° |
| 2026-04-20 19:34 | 58.90010 | 14.86149 | 36329 ft | 577 kts | 245° |
| 2026-04-20 19:35 | 58.88367 | 14.79010 | 36444 ft | 576 kts | 245° |
| 2026-04-20 19:35 | 58.86749 | 14.72007 | 36338 ft | 578 kts | 245° |
| 2026-04-20 19:35 | 58.85093 | 14.64858 | 36400 ft | 576 kts | 245° |
| 2026-04-20 19:36 | 58.81810 | 14.50763 | 36345 ft | 575 kts | 245° |
| 2026-04-20 19:36 | 58.78522 | 14.36744 | 36312 ft | 577 kts | 245° |
| 2026-04-20 19:36 | 58.76881 | 14.29771 | 36424 ft | 576 kts | 245° |
| 2026-04-20 19:37 | 58.75204 | 14.22675 | 36321 ft | 578 kts | 244° |
| 2026-04-20 19:37 | 58.71884 | 14.08702 | 36375 ft | 578 kts | 244° |
| 2026-04-20 19:38 | 58.68547 | 13.94746 | 36442 ft | 577 kts | 245° |
| 2026-04-20 19:38 | 58.65219 | 13.80913 | 36386 ft | 575 kts | 245° |
| 2026-04-20 19:39 | 58.61872 | 13.67085 | 36387 ft | 575 kts | 245° |
| 2026-04-20 19:39 | 58.58690 | 13.53001 | 36392 ft | 576 kts | 258° |
| 2026-04-20 19:40 | 58.57445 | 13.37901 | 36419 ft | 577 kts | 257° |
| 2026-04-20 19:40 | 58.56169 | 13.30577 | 36124 ft | 579 kts | 239° |
| 2026-04-20 19:40 | 58.53953 | 13.24400 | 35746 ft | 570 kts | 222° |
| 2026-04-20 19:40 | 58.50901 | 13.19756 | 35475 ft | 558 kts | 203° |
| 2026-04-20 19:41 | 58.47287 | 13.17117 | 35315 ft | 549 kts | 186° |
| 2026-04-20 19:41 | 58.43533 | 13.16551 | 34911 ft | 541 kts | 174° |
| 2026-04-20 19:41 | 58.39761 | 13.16282 | 34315 ft | 541 kts | 188° |
| 2026-04-20 19:41 | 58.36259 | 13.14169 | 33754 ft | 541 kts | 207° |
| 2026-04-20 19:42 | 58.33212 | 13.10105 | 33273 ft | 543 kts | 223° |
| 2026-04-20 19:42 | 58.30609 | 13.05004 | 32635 ft | 540 kts | 225° |
| 2026-04-20 19:42 | 58.28050 | 12.99882 | 31863 ft | 534 kts | 225° |
| 2026-04-20 19:42 | 58.25530 | 12.94868 | 31049 ft | 526 kts | 225° |
| 2026-04-20 19:43 | 58.23853 | 12.91540 | 30488 ft | 522 kts | 225° |
| 2026-04-20 19:43 | 58.20529 | 12.84963 | 29359 ft | 515 kts | 225° |
| 2026-04-20 19:43 | 58.18104 | 12.80174 | 28534 ft | 509 kts | 225° |
| 2026-04-20 19:43 | 58.15660 | 12.75363 | 27695 ft | 503 kts | 225° |
| 2026-04-20 19:44 | 58.13261 | 12.70656 | 26870 ft | 498 kts | 225° |
| 2026-04-20 19:44 | 58.10903 | 12.66114 | 26057 ft | 491 kts | 219° |
| 2026-04-20 19:44 | 58.08155 | 12.62495 | 25289 ft | 482 kts | 200° |
| 2026-04-20 19:44 | 58.04978 | 12.60671 | 24623 ft | 472 kts | 188° |
| 2026-04-20 19:45 | 58.01841 | 12.59508 | 23878 ft | 466 kts | 189° |
| 2026-04-20 19:45 | 57.98659 | 12.58281 | 23056 ft | 461 kts | 189° |
| 2026-04-20 19:45 | 57.95558 | 12.57096 | 22246 ft | 457 kts | 189° |
| 2026-04-20 19:45 | 57.92448 | 12.55914 | 21430 ft | 450 kts | 189° |
| 2026-04-20 19:46 | 57.89422 | 12.54772 | 20622 ft | 446 kts | 189° |
| 2026-04-20 19:46 | 57.86367 | 12.53633 | 19787 ft | 441 kts | 189° |
| 2026-04-20 19:46 | 57.83400 | 12.52537 | 18971 ft | 435 kts | 189° |
| 2026-04-20 19:46 | 57.80458 | 12.51450 | 18148 ft | 431 kts | 189° |
| 2026-04-20 19:47 | 57.77518 | 12.50360 | 17335 ft | 427 kts | 189° |
| 2026-04-20 19:47 | 57.74628 | 12.49278 | 16544 ft | 423 kts | 189° |
| 2026-04-20 19:47 | 57.71737 | 12.48196 | 15725 ft | 418 kts | 189° |
| 2026-04-20 19:47 | 57.68924 | 12.47142 | 14906 ft | 414 kts | 189° |
| 2026-04-20 19:48 | 57.66127 | 12.46096 | 14107 ft | 410 kts | 189° |
| 2026-04-20 19:48 | 57.63320 | 12.45043 | 13303 ft | 405 kts | 189° |
| 2026-04-20 19:48 | 57.60611 | 12.44031 | 12530 ft | 395 kts | 189° |
| 2026-04-20 19:48 | 57.58011 | 12.43051 | 11693 ft | 368 kts | 189° |
| 2026-04-20 19:49 | 57.55605 | 12.42122 | 10810 ft | 332 kts | 189° |
| 2026-04-20 19:49 | 57.53506 | 12.41042 | 9875 ft | 313 kts | 204° |
| 2026-04-20 19:49 | 57.51574 | 12.39162 | 9072 ft | 306 kts | 206° |
| 2026-04-20 19:49 | 57.49698 | 12.37305 | 8281 ft | 303 kts | 206° |
| 2026-04-20 19:50 | 57.48019 | 12.35013 | 7516 ft | 305 kts | 233° |
| 2026-04-20 19:50 | 57.47125 | 12.31531 | 6824 ft | 302 kts | 267° |
| 2026-04-20 19:50 | 57.47346 | 12.27759 | 6182 ft | 289 kts | 295° |
| 2026-04-20 19:50 | 57.47923 | 12.24255 | 5476 ft | 289 kts | 276° |
| 2026-04-20 19:51 | 57.47612 | 12.20562 | 4708 ft | 290 kts | 241° |
| 2026-04-20 19:51 | 57.46605 | 12.17382 | 4298 ft | 288 kts | 246° |
| 2026-04-20 19:51 | 57.46185 | 12.13801 | 3989 ft | 284 kts | 282° |
| 2026-04-20 19:51 | 57.46899 | 12.10507 | 3774 ft | 273 kts | 319° |
| 2026-04-20 19:52 | 57.48472 | 12.08771 | 3732 ft | 259 kts | 358° |
| 2026-04-20 19:52 | 57.50195 | 12.09034 | 3697 ft | 250 kts | 25° |
| 2026-04-20 19:52 | 57.51672 | 12.10671 | 3647 ft | 243 kts | 48° |
| 2026-04-20 19:52 | 57.52687 | 12.13163 | 3654 ft | 239 kts | 57° |
| 2026-04-20 19:53 | 57.53532 | 12.15493 | 3258 ft | 205 kts | 52° |
| 2026-04-20 19:53 | 57.54450 | 12.17275 | 2673 ft | 185 kts | 33° |
| 2026-04-20 19:53 | 57.55614 | 12.18293 | 2364 ft | 186 kts | 23° |
| 2026-04-20 19:53 | 57.56781 | 12.19286 | 2313 ft | 186 kts | 31° |
| 2026-04-20 19:54 | 57.57933 | 12.20427 | 2056 ft | 189 kts | 27° |
| 2026-04-20 19:54 | 57.59130 | 12.21473 | 1805 ft | 187 kts | 28° |
| 2026-04-20 19:54 | 57.60305 | 12.22543 | 1540 ft | 189 kts | 28° |
| 2026-04-20 19:54 | 57.61480 | 12.23627 | 1284 ft | 189 kts | 27° |
| 2026-04-20 19:55 | 57.62672 | 12.24699 | 1025 ft | 191 kts | 26° |
| 2026-04-20 19:55 | 57.63800 | 12.25720 | 753 ft | 177 kts | 26° |
| 2026-04-20 19:55 | 57.64913 | 12.26730 | 545 ft | 183 kts | 26° |
| 2026-04-20 19:55 | 57.65954 | 12.27675 | 512 ft | 122 kts | 25° |
| 2026-04-20 19:56 | 57.66447 | 12.28118 | 516 ft | 62 kts | 28° |
| 2026-04-20 19:56 | 57.66692 | 12.28513 | 514 ft | 45 kts | 55° |
| 2026-04-20 19:56 | 57.66818 | 12.28827 | 511 ft | 17 kts | 62° |
| 2026-04-20 19:56 | 57.66798 | 12.29009 | 512 ft | 13 kts | 112° |
| 2026-04-20 19:57 | 57.66769 | 12.29134 | 514 ft | 7 kts | 116° |
| 2026-04-20 19:57 | 57.66752 | 12.29186 | 515 ft | 1 kts | 120° |
| 2026-04-20 19:57 | 57.66750 | 12.29193 | 515 ft | 0 kts | 121° |
| 2026-04-20 19:57 | 57.66746 | 12.29207 | 516 ft | 1 kts | 115° |
| 2026-04-20 19:58 | 57.66740 | 12.29231 | 516 ft | 2 kts | 115° |
| 2026-04-20 19:58 | 57.66734 | 12.29253 | 516 ft | 4 kts | 115° |
| 2026-04-20 19:58 | 57.66730 | 12.29269 | 517 ft | 0 kts | 115° |